Time;durP1;ratioP1;P1;durP2;ratioP2;P2;SDS_P1;SDS_P2;PMS_P1;PMS_P2;Temp;Humidity;BMP_temperature;BMP_pressure;BME280_temperature;BME280_humidity;BME280_pressure;Samples;Min_cycle;Max_cycle;Signal;HPM_P1;HPM_P2
2021/08/04 00:01:37;;;;;;;5.90;3.78;;;;;;;;;;10359924;28;20048;-64
2021/08/04 00:06:36;;;;;;;7.97;4.45;;;;;;;;;;10360247;28;20055;-64
2021/08/04 00:11:36;;;;;;;6.97;4.00;;;;;;;;;;10360020;28;20510;-63
2021/08/04 00:16:34;;;;;;;7.63;4.30;;;;;;;;;;10358656;28;20044;-64
2021/08/04 00:21:33;;;;;;;5.45;4.03;;;;;;;;;;10331341;28;20068;-64
2021/08/04 00:26:31;;;;;;;8.35;4.78;;;;;;;;;;10350049;28;20501;-63
2021/08/04 00:31:31;;;;;;;11.68;5.03;;;;;;;;;;10358203;28;20088;-65
2021/08/04 00:36:29;;;;;;;7.30;4.53;;;;;;;;;;10357125;28;20070;-65
2021/08/04 00:41:28;;;;;;;17.63;5.22;;;;;;;;;;10356590;28;20056;-63
2021/08/04 00:46:26;;;;;;;5.93;5.20;;;;;;;;;;10358703;28;20080;-62
2021/08/04 00:51:26;;;;;;;12.60;6.05;;;;;;;;;;10358275;28;20074;-63
2021/08/04 00:56:25;;;;;;;8.15;5.93;;;;;;;;;;10356620;28;20569;-63
2021/08/04 01:01:24;;;;;;;11.60;5.80;;;;;;;;;;10358420;28;20048;-65
2021/08/04 01:06:30;;;;;;;11.65;6.60;;;;;;;;;;10358364;28;20531;-63
2021/08/04 01:11:32;;;;;;;9.57;6.30;;;;;;;;;;10357770;28;20094;-63
2021/08/04 01:16:33;;;;;;;9.23;6.07;;;;;;;;;;10355863;28;20497;-63
2021/08/04 01:21:34;;;;;;;12.80;7.00;;;;;;;;;;10355291;28;20386;-63
2021/08/04 01:26:37;;;;;;;9.68;7.72;;;;;;;;;;10357363;28;20531;-63
2021/08/04 01:31:35;;;;;;;;;;;;;;;;;;10356187;28;20461;-64
2021/08/04 01:36:34;;;;;;;16.50;7.13;;;;;;;;;;10357430;28;19924;-64
2021/08/04 01:41:36;;;;;;;9.73;6.80;;;;;;;;;;10355252;28;20044;-64
2021/08/04 01:46:35;;;;;;;12.80;7.75;;;;;;;;;;10357033;28;20051;-64
2021/08/04 01:51:34;;;;;;;12.38;7.22;;;;;;;;;;10356766;28;20076;-64
2021/08/04 01:56:32;;;;;;;11.60;6.32;;;;;;;;;;10356759;28;20048;-63
2021/08/04 02:01:32;;;;;;;11.45;7.22;;;;;;;;;;10354820;28;20052;-64
2021/08/04 02:06:32;;;;;;;12.35;7.95;;;;;;;;;;10354617;28;20044;-63
2021/08/04 02:11:38;;;;;;;7.07;6.30;;;;;;;;;;10354563;28;20078;-64
2021/08/04 02:16:43;;;;;;;11.32;7.55;;;;;;;;;;10354411;28;20048;-62
2021/08/04 02:21:43;;;;;;;13.52;7.80;;;;;;;;;;10355107;28;20091;-62
2021/08/04 02:26:41;;;;;;;7.40;6.30;;;;;;;;;;10356134;28;20048;-62
2021/08/04 02:31:41;;;;;;;6.97;5.63;;;;;;;;;;10354798;28;20436;-63
2021/08/04 02:36:40;;;;;;;9.57;6.40;;;;;;;;;;10356053;28;20477;-62
2021/08/04 02:41:38;;;;;;;10.35;6.32;;;;;;;;;;10355773;28;20485;-63
2021/08/04 02:46:37;;;;;;;10.80;5.65;;;;;;;;;;10355759;28;20507;-63
2021/08/04 02:51:40;;;;;;;9.18;5.53;;;;;;;;;;10356266;28;20409;-63
2021/08/04 02:56:38;;;;;;;7.17;5.60;;;;;;;;;;10362753;28;20044;-63
2021/08/04 03:01:36;;;;;;;10.05;6.63;;;;;;;;;;10351814;28;20358;-63
2021/08/04 03:06:36;;;;;;;9.68;6.07;;;;;;;;;;10345004;28;20068;-63
2021/08/04 03:11:35;;;;;;;8.25;5.95;;;;;;;;;;10330173;28;20505;-63
2021/08/04 03:16:34;;;;;;;10.35;7.00;;;;;;;;;;10345567;28;20557;-63
2021/08/04 03:21:32;;;;;;;16.05;6.88;;;;;;;;;;10338719;28;20146;-64
2021/08/04 03:26:32;;;;;;;13.82;8.52;;;;;;;;;;10333725;28;20064;-63
2021/08/04 03:31:30;;;;;;;13.70;6.45;;;;;;;;;;10333108;28;20072;-64
2021/08/04 03:36:29;;;;;;;11.82;6.97;;;;;;;;;;10332087;28;20083;-62
2021/08/04 03:41:28;;;;;;;9.18;6.93;;;;;;;;;;10338748;28;20088;-62
2021/08/04 03:46:27;;;;;;;17.48;7.70;;;;;;;;;;10314923;28;20051;-63
2021/08/04 03:51:26;;;;;;;15.00;8.00;;;;;;;;;;10318302;28;20369;-64
2021/08/04 03:56:24;;;;;;;17.38;8.38;;;;;;;;;;10319164;28;20045;-63
2021/08/04 04:01:22;;;;;;;15.88;8.13;;;;;;;;;;10319259;28;20080;-63
2021/08/04 04:06:24;;;;;;;14.00;9.68;;;;;;;;;;10319495;28;20055;-65
2021/08/04 04:11:23;;;;;;;13.63;11.65;;;;;;;;;;10318797;28;20072;-64
2021/08/04 04:16:21;;;;;;;16.73;12.27;;;;;;;;;;10318655;28;20052;-63
2021/08/04 04:21:20;;;;;;;12.32;9.30;;;;;;;;;;10319064;28;20052;-65
2021/08/04 04:26:19;;;;;;;18.30;12.65;;;;;;;;;;10318309;28;20654;-65
2021/08/04 04:31:18;;;;;;;23.00;13.35;;;;;;;;;;10318666;28;20044;-64
2021/08/04 04:36:16;;;;;;;20.75;12.90;;;;;;;;;;10317771;28;20563;-65
2021/08/04 04:41:15;;;;;;;12.98;9.45;;;;;;;;;;10313728;28;20084;-65
2021/08/04 04:46:14;;;;;;;16.15;11.13;;;;;;;;;;10314104;28;20375;-64
2021/08/04 04:51:13;;;;;;;17.52;10.23;;;;;;;;;;10313799;28;20083;-64
2021/08/04 04:56:11;;;;;;;15.82;10.25;;;;;;;;;;10316848;28;20049;-65
2021/08/04 05:01:09;;;;;;;15.88;10.10;;;;;;;;;;10317249;28;20107;-65
2021/08/04 05:06:09;;;;;;;15.25;10.27;;;;;;;;;;10316824;28;20520;-65
2021/08/04 05:11:08;;;;;;;15.60;10.38;;;;;;;;;;10316738;28;20045;-64
2021/08/04 05:16:06;;;;;;;13.15;10.77;;;;;;;;;;10316128;28;20053;-65
2021/08/04 05:21:04;;;;;;;13.13;10.68;;;;;;;;;;10316410;28;20099;-64
2021/08/04 05:26:04;;;;;;;17.27;11.18;;;;;;;;;;10316407;28;20048;-65
2021/08/04 05:31:03;;;;;;;14.43;11.73;;;;;;;;;;10316023;28;20052;-64
2021/08/04 05:36:01;;;;;;;15.05;11.32;;;;;;;;;;10317414;28;20076;-64
2021/08/04 05:40:59;;;;;;;16.13;10.80;;;;;;;;;;10316285;28;20092;-64
2021/08/04 05:45:59;;;;;;;21.23;11.80;;;;;;;;;;10316914;28;20048;-64
2021/08/04 05:50:58;;;;;;;11.50;10.38;;;;;;;;;;10316570;28;20072;-64
2021/08/04 05:55:56;;;;;;;11.80;10.57;;;;;;;;;;10316816;28;20036;-65
2021/08/04 06:00:54;;;;;;;14.85;10.85;;;;;;;;;;10315598;28;20091;-63
2021/08/04 06:05:54;;;;;;;13.05;9.63;;;;;;;;;;10316732;28;20048;-65
2021/08/04 06:10:52;;;;;;;17.77;10.77;;;;;;;;;;10316368;28;20052;-64
2021/08/04 06:15:53;;;;;;;13.23;8.88;;;;;;;;;;10316124;28;20045;-64
2021/08/04 06:20:51;;;;;;;14.05;8.85;;;;;;;;;;10316343;28;20533;-64
2021/08/04 06:25:51;;;;;;;12.18;9.75;;;;;;;;;;10316286;28;20048;-65
2021/08/04 06:31:09;;;;;;;13.75;9.73;;;;;;;;;;10322666;28;20045;-64
2021/08/04 06:36:08;;;;;;;19.67;10.27;;;;;;;;;;10322349;28;20063;-64
2021/08/04 06:41:07;;;;;;;15.80;10.57;;;;;;;;;;10322542;28;20080;-64
2021/08/04 06:46:09;;;;;;;13.82;9.57;;;;;;;;;;10323118;28;20049;-64
2021/08/04 06:51:14;;;;;;;11.95;10.05;;;;;;;;;;10322958;28;20045;-64
2021/08/04 06:56:14;;;;;;;19.85;10.13;;;;;;;;;;10321914;28;20040;-65
2021/08/04 07:01:12;;;;;;;15.52;9.55;;;;;;;;;;10321461;28;20049;-64
2021/08/04 07:06:11;;;;;;;12.52;8.90;;;;;;;;;;10321230;28;20078;-64
2021/08/04 07:11:09;;;;;;;12.63;7.80;;;;;;;;;;10321652;28;20087;-65
2021/08/04 07:16:09;;;;;;;12.55;10.07;;;;;;;;;;10321177;28;20052;-63
2021/08/04 07:21:07;;;;;;;11.23;9.73;;;;;;;;;;10320751;28;20068;-64
2021/08/04 07:26:06;;;;;;;16.02;10.93;;;;;;;;;;10320833;28;20084;-64
2021/08/04 07:31:04;;;;;;;18.23;9.25;;;;;;;;;;10321718;28;20047;-65
2021/08/04 07:36:05;;;;;;;20.48;11.32;;;;;;;;;;10320818;28;20040;-65
2021/08/04 07:41:04;;;;;;;17.25;11.20;;;;;;;;;;10320131;28;20056;-65
2021/08/04 07:46:03;;;;;;;14.95;11.43;;;;;;;;;;10321198;28;20412;-65
2021/08/04 07:51:02;;;;;;;17.35;13.07;;;;;;;;;;10320500;28;20055;-66
2021/08/04 07:56:02;;;;;;;18.38;11.88;;;;;;;;;;10320526;28;20048;-65
2021/08/04 08:01:00;;;;;;;15.60;12.15;;;;;;;;;;10320613;28;20080;-65
2021/08/04 08:05:59;;;;;;;14.65;11.43;;;;;;;;;;10320450;28;20493;-66
2021/08/04 08:10:57;;;;;;;13.80;11.30;;;;;;;;;;10319947;28;20044;-66
2021/08/04 08:15:57;;;;;;;18.05;11.90;;;;;;;;;;10320134;28;20052;-65
2021/08/04 08:20:55;;;;;;;18.00;12.68;;;;;;;;;;10319622;28;20040;-65
2021/08/04 08:25:54;;;;;;;15.23;11.43;;;;;;;;;;10319463;28;20044;-65
2021/08/04 08:30:52;;;;;;;13.70;10.45;;;;;;;;;;10319107;28;20040;-65
2021/08/04 08:35:52;;;;;;;16.88;12.23;;;;;;;;;;10318967;28;20052;-64
2021/08/04 08:40:50;;;;;;;27.55;24.65;;;;;;;;;;10316869;28;20429;-64
2021/08/04 08:45:49;;;;;;;20.98;15.85;;;;;;;;;;10316946;28;20472;-64
2021/08/04 08:50:49;;;;;;;16.83;14.07;;;;;;;;;;10316690;28;20052;-64
2021/08/04 08:55:50;;;;;;;15.77;13.27;;;;;;;;;;10318217;28;20056;-64
2021/08/04 09:00:48;;;;;;;14.60;11.15;;;;;;;;;;10317924;28;20047;-64
2021/08/04 09:05:48;;;;;;;14.60;11.73;;;;;;;;;;10316893;28;20052;-65
2021/08/04 09:10:46;;;;;;;12.02;8.00;;;;;;;;;;10317707;28;20059;-64
2021/08/04 09:15:46;;;;;;;10.55;6.72;;;;;;;;;;10317734;28;20041;-65
2021/08/04 09:20:45;;;;;;;11.55;6.97;;;;;;;;;;10317729;28;20056;-64
2021/08/04 09:25:58;;;;;;;9.82;8.13;;;;;;;;;;10317417;28;20072;-65
2021/08/04 09:31:02;;;;;;;9.98;6.50;;;;;;;;;;10317210;28;20428;-65
2021/08/04 09:36:00;;;;;;;8.57;5.97;;;;;;;;;;10317237;28;20095;-65
2021/08/04 09:41:12;;;;;;;12.18;5.70;;;;;;;;;;10316544;28;20055;-65
2021/08/04 09:46:22;;;;;;;10.18;5.05;;;;;;;;;;10316071;28;20497;-65
2021/08/04 09:51:25;;;;;;;7.82;5.47;;;;;;;;;;10316273;28;20064;-65
2021/08/04 09:56:23;;;;;;;9.40;5.70;;;;;;;;;;10316393;28;20079;-65
2021/08/04 10:01:23;;;;;;;6.38;5.25;;;;;;;;;;10317556;28;20087;-65
2021/08/04 10:06:22;;;;;;;6.97;5.47;;;;;;;;;;10323964;28;20098;-64
2021/08/04 10:11:25;;;;;;;6.63;5.05;;;;;;;;;;10323725;28;20048;-65
2021/08/04 10:16:29;;;;;;;13.90;6.18;;;;;;;;;;10323570;28;20052;-65
2021/08/04 10:21:28;;;;;;;8.57;5.68;;;;;;;;;;10323374;28;20052;-64
2021/08/04 10:26:26;;;;;;;8.98;5.10;;;;;;;;;;10323666;28;20452;-65
2021/08/04 10:31:27;;;;;;;9.52;5.55;;;;;;;;;;10323071;28;20041;-67
2021/08/04 10:36:30;;;;;;;8.27;5.78;;;;;;;;;;10323197;28;20053;-65
2021/08/04 10:41:29;;;;;;;8.77;5.20;;;;;;;;;;10323448;28;20526;-65
2021/08/04 10:46:44;;;;;;;13.55;6.03;;;;;;;;;;10322604;28;20080;-65
2021/08/04 10:51:43;;;;;;;9.30;6.35;;;;;;;;;;10322691;28;20040;-66
2021/08/04 10:56:56;;;;;;;11.05;5.72;;;;;;;;;;10321978;28;20053;-68
2021/08/04 11:02:17;;;;;;;6.85;5.38;;;;;;;;;;10321433;28;20060;-66
2021/08/04 11:07:18;;;;;;;8.98;5.38;;;;;;;;;;10321974;28;20071;-66
2021/08/04 11:12:18;;;;;;;;;;;;;;;;;;10320746;28;20486;-65
2021/08/04 11:17:19;;;;;;;8.02;4.70;;;;;;;;;;10321122;28;19931;-65
2021/08/04 11:22:19;;;;;;;12.15;4.90;;;;;;;;;;10320903;28;20080;-66
2021/08/04 11:27:17;;;;;;;9.45;4.93;;;;;;;;;;10321349;28;20045;-65
2021/08/04 11:32:15;;;;;;;10.23;4.78;;;;;;;;;;10320575;28;20462;-65
2021/08/04 11:37:15;;;;;;;6.47;4.45;;;;;;;;;;10320321;28;20080;-65
2021/08/04 11:42:15;;;;;;;10.93;5.03;;;;;;;;;;10320411;28;20041;-65
2021/08/04 11:47:13;;;;;;;9.27;5.72;;;;;;;;;;10322043;28;20045;-65
2021/08/04 11:52:12;;;;;;;8.10;5.70;;;;;;;;;;10322486;28;20052;-65
2021/08/04 11:57:13;;;;;;;11.90;5.75;;;;;;;;;;10320898;28;20437;-64
2021/08/04 12:02:12;;;;;;;7.50;5.07;;;;;;;;;;10320155;28;20048;-65
2021/08/04 12:07:10;;;;;;;6.63;5.63;;;;;;;;;;10319509;28;20059;-64
2021/08/04 12:12:12;;;;;;;6.53;5.03;;;;;;;;;;10319408;28;20417;-65
2021/08/04 12:17:20;;;;;;;8.82;4.78;;;;;;;;;;10319274;28;20075;-65
2021/08/04 12:22:20;;;;;;;13.35;5.22;;;;;;;;;;10319227;28;20048;-65
2021/08/04 12:27:29;;;;;;;9.60;5.95;;;;;;;;;;10318416;28;20368;-65
2021/08/04 12:32:31;;;;;;;11.18;4.75;;;;;;;;;;10318151;28;20515;-65
2021/08/04 12:37:31;;;;;;;13.05;5.75;;;;;;;;;;10318260;28;20067;-65
2021/08/04 12:42:30;;;;;;;8.48;4.93;;;;;;;;;;10318046;28;20695;-65
2021/08/04 12:47:29;;;;;;;8.70;5.65;;;;;;;;;;10317191;28;20421;-64
2021/08/04 12:52:35;;;;;;;14.63;5.53;;;;;;;;;;10317786;28;20048;-65
2021/08/04 12:57:34;;;;;;;10.25;5.68;;;;;;;;;;10317584;28;20056;-66
2021/08/04 13:02:39;;;;;;;6.93;5.00;;;;;;;;;;10317279;28;20422;-66
2021/08/04 13:07:42;;;;;;;6.85;5.45;;;;;;;;;;10317497;28;20052;-65
2021/08/04 13:12:41;;;;;;;9.27;5.40;;;;;;;;;;10316805;28;20040;-65
2021/08/04 13:17:41;;;;;;;10.70;5.20;;;;;;;;;;10316958;28;20045;-63
2021/08/04 13:22:55;;;;;;;12.70;4.60;;;;;;;;;;10316840;28;20044;-65
2021/08/04 13:27:53;;;;;;;;;;;;;;;;;;10315736;28;20056;-65
2021/08/04 13:32:53;;;;;;;14.50;4.97;;;;;;;;;;10316659;28;19953;-64
2021/08/04 13:37:51;;;;;;;11.30;5.00;;;;;;;;;;10315912;28;20080;-66
2021/08/04 13:42:50;;;;;;;9.13;5.03;;;;;;;;;;10316353;28;20084;-65
2021/08/04 13:47:49;;;;;;;11.07;5.55;;;;;;;;;;10316453;28;20099;-65
2021/08/04 13:52:52;;;;;;;7.68;4.63;;;;;;;;;;10316375;28;20080;-64
2021/08/04 13:57:50;;;;;;;11.15;5.00;;;;;;;;;;10315624;28;20116;-64
2021/08/04 14:02:49;;;;;;;8.65;6.03;;;;;;;;;;10316161;28;20062;-65
2021/08/04 14:07:49;;;;;;;11.40;4.90;;;;;;;;;;10315805;28;20048;-64
2021/08/04 14:12:47;;;;;;;8.77;4.78;;;;;;;;;;10315481;28;20043;-64
2021/08/04 14:17:46;;;;;;;10.48;5.22;;;;;;;;;;10315175;28;20091;-64
2021/08/04 14:22:45;;;;;;;7.18;4.93;;;;;;;;;;10315767;28;20044;-64
2021/08/04 14:27:44;;;;;;;13.20;6.32;;;;;;;;;;10327825;28;20520;-63
2021/08/04 14:32:44;;;;;;;52.05;28.77;;;;;;;;;;10339590;28;20072;-63
2021/08/04 14:37:43;;;;;;;12.18;6.15;;;;;;;;;;10336471;28;20083;-64
2021/08/04 14:42:42;;;;;;;6.90;5.10;;;;;;;;;;10338124;28;20088;-64
2021/08/04 14:47:41;;;;;;;5.90;4.28;;;;;;;;;;10318804;28;20083;-63
2021/08/04 14:52:43;;;;;;;15.65;4.30;;;;;;;;;;10345902;28;20076;-63
2021/08/04 14:57:42;;;;;;;6.68;4.35;;;;;;;;;;10345488;28;20072;-64
2021/08/04 15:02:42;;;;;;;7.90;4.63;;;;;;;;;;10344536;28;20079;-63
2021/08/04 15:07:41;;;;;;;5.55;4.40;;;;;;;;;;10344992;28;20055;-64
2021/08/04 15:12:40;;;;;;;8.35;4.28;;;;;;;;;;10357221;28;20071;-64
2021/08/04 15:17:40;;;;;;;7.03;4.38;;;;;;;;;;10332171;28;20079;-64
2021/08/04 15:22:40;;;;;;;5.70;4.50;;;;;;;;;;10337133;28;20080;-65
2021/08/04 15:27:38;;;;;;;11.60;6.45;;;;;;;;;;10320192;28;20441;-64
2021/08/04 15:32:39;;;;;;;8.13;5.85;;;;;;;;;;10342649;28;20449;-64
2021/08/04 15:37:37;;;;;;;6.63;5.22;;;;;;;;;;10339452;28;20462;-63
2021/08/04 15:42:37;;;;;;;9.48;5.05;;;;;;;;;;10336706;28;20075;-64
2021/08/04 15:47:35;;;;;;;5.50;3.90;;;;;;;;;;10347054;28;20098;-64
2021/08/04 15:52:34;;;;;;;11.23;6.25;;;;;;;;;;10335977;28;20130;-65
2021/08/04 15:57:32;;;;;;;6.15;5.20;;;;;;;;;;10360285;28;20082;-65
2021/08/04 16:02:32;;;;;;;8.30;4.13;;;;;;;;;;10360413;28;20047;-64
2021/08/04 16:07:32;;;;;;;6.50;4.57;;;;;;;;;;10346624;28;20083;-63
2021/08/04 16:12:30;;;;;;;5.55;3.55;;;;;;;;;;10343321;28;20083;-64
2021/08/04 16:17:29;;;;;;;12.35;4.55;;;;;;;;;;10349384;28;20507;-62
2021/08/04 16:22:29;;;;;;;8.52;4.55;;;;;;;;;;10327626;28;20088;-63
2021/08/04 16:27:27;;;;;;;6.85;5.18;;;;;;;;;;10329108;28;20505;-64
2021/08/04 16:32:26;;;;;;;8.55;4.40;;;;;;;;;;10314599;28;20086;-64
2021/08/04 16:37:24;;;;;;;11.68;4.85;;;;;;;;;;10317213;28;20080;-63
2021/08/04 16:42:24;;;;;;;8.40;3.67;;;;;;;;;;10316424;28;20482;-62
2021/08/04 16:47:22;;;;;;;11.35;4.43;;;;;;;;;;10317929;28;20040;-63
2021/08/04 16:52:20;;;;;;;6.55;3.80;;;;;;;;;;10316953;28;20092;-63
2021/08/04 16:57:18;;;;;;;8.15;4.20;;;;;;;;;;10316889;28;20103;-63
2021/08/04 17:02:18;;;;;;;5.82;4.07;;;;;;;;;;10317099;28;20060;-63
2021/08/04 17:07:17;;;;;;;6.35;3.95;;;;;;;;;;10316939;28;20051;-63
2021/08/04 17:12:15;;;;;;;10.35;5.25;;;;;;;;;;10315618;28;20048;-63
2021/08/04 17:17:14;;;;;;;9.05;5.25;;;;;;;;;;10316699;28;20068;-63
2021/08/04 17:22:15;;;;;;;11.15;5.60;;;;;;;;;;10316739;28;20186;-64
2021/08/04 17:27:14;;;;;;;9.48;4.80;;;;;;;;;;10316464;28;20044;-63
2021/08/04 17:32:12;;;;;;;6.32;4.22;;;;;;;;;;10315914;28;20048;-65
2021/08/04 17:37:10;;;;;;;10.85;5.20;;;;;;;;;;10315732;28;20088;-63
2021/08/04 17:42:10;;;;;;;8.50;5.05;;;;;;;;;;10315660;28;20052;-63
2021/08/04 17:47:10;;;;;;;9.93;5.20;;;;;;;;;;10316207;28;20490;-63
2021/08/04 17:52:09;;;;;;;14.30;5.45;;;;;;;;;;10316110;28;20047;-64
2021/08/04 17:57:11;;;;;;;9.90;6.00;;;;;;;;;;10316771;28;20531;-64
2021/08/04 18:02:10;;;;;;;13.05;6.40;;;;;;;;;;10314983;28;20048;-63
2021/08/04 18:07:09;;;;;;;9.98;5.85;;;;;;;;;;10315474;28;20489;-63
2021/08/04 18:12:07;;;;;;;6.07;4.75;;;;;;;;;;10315444;28;20075;-64
2021/08/04 18:17:07;;;;;;;9.77;4.55;;;;;;;;;;10315378;28;20611;-62
2021/08/04 18:22:08;;;;;;;7.28;4.63;;;;;;;;;;10315472;28;20044;-62
2021/08/04 18:27:06;;;;;;;5.65;4.65;;;;;;;;;;10323088;28;20071;-63
2021/08/04 18:32:05;;;;;;;4.30;3.70;;;;;;;;;;10323022;28;20048;-63
2021/08/04 18:37:05;;;;;;;7.15;4.20;;;;;;;;;;10321405;28;20059;-63
2021/08/04 18:42:03;;;;;;;6.97;3.83;;;;;;;;;;10322588;28;20048;-64
2021/08/04 18:47:01;;;;;;;10.40;3.88;;;;;;;;;;10322349;28;20045;-62
2021/08/04 18:52:00;;;;;;;9.75;3.72;;;;;;;;;;10320613;28;20048;-63
2021/08/04 18:57:02;;;;;;;5.90;3.58;;;;;;;;;;10321953;28;20084;-62
2021/08/04 19:02:01;;;;;;;9.38;4.20;;;;;;;;;;10321808;28;20044;-62
2021/08/04 19:06:59;;;;;;;8.25;4.25;;;;;;;;;;10321520;28;20043;-62
2021/08/04 19:11:57;;;;;;;8.18;4.40;;;;;;;;;;10329139;28;20040;-62
2021/08/04 19:16:57;;;;;;;7.85;4.07;;;;;;;;;;10339232;28;20457;-62
2021/08/04 19:21:55;;;;;;;6.63;4.50;;;;;;;;;;10344839;28;20072;-62
2021/08/04 19:26:54;;;;;;;7.82;4.78;;;;;;;;;;10334238;28;20469;-63
2021/08/04 19:31:52;;;;;;;9.48;4.82;;;;;;;;;;10316629;28;20056;-65
2021/08/04 19:36:52;;;;;;;6.43;4.10;;;;;;;;;;10314865;28;20742;-63
2021/08/04 19:41:50;;;;;;;10.15;4.30;;;;;;;;;;10318909;28;20080;-64
2021/08/04 19:46:48;;;;;;;9.40;4.68;;;;;;;;;;10319900;28;20410;-62
2021/08/04 19:51:47;;;;;;;7.68;4.38;;;;;;;;;;10320002;28;20452;-62
2021/08/04 19:56:46;;;;;;;9.05;4.38;;;;;;;;;;10327778;28;20465;-62
2021/08/04 20:01:46;;;;;;;9.88;4.32;;;;;;;;;;10323220;28;20055;-64
2021/08/04 20:06:45;;;;;;;9.82;4.60;;;;;;;;;;10319422;28;20059;-64
2021/08/04 20:11:43;;;;;;;7.13;5.38;;;;;;;;;;10319121;28;20544;-64
2021/08/04 20:16:43;;;;;;;6.93;5.45;;;;;;;;;;10319468;28;20080;-64
2021/08/04 20:21:41;;;;;;;8.60;4.97;;;;;;;;;;10318788;28;20047;-63
2021/08/04 20:26:40;;;;;;;7.18;4.75;;;;;;;;;;10329034;28;20068;-62
2021/08/04 20:31:38;;;;;;;8.27;4.10;;;;;;;;;;10318392;28;20380;-63
2021/08/04 20:36:38;;;;;;;11.32;4.55;;;;;;;;;;10317982;28;20087;-63
2021/08/04 20:41:36;;;;;;;8.43;4.88;;;;;;;;;;10317903;28;20037;-63
2021/08/04 20:46:37;;;;;;;10.32;5.10;;;;;;;;;;10317528;28;20080;-63
2021/08/04 20:51:36;;;;;;;11.48;5.35;;;;;;;;;;10317427;28;20047;-63
2021/08/04 20:56:35;;;;;;;8.77;4.93;;;;;;;;;;10317827;28;20076;-63
2021/08/04 21:01:34;;;;;;;12.05;4.90;;;;;;;;;;10317698;28;20091;-64
2021/08/04 21:06:32;;;;;;;5.90;4.75;;;;;;;;;;10316715;28;20090;-64
2021/08/04 21:11:31;;;;;;;8.45;5.72;;;;;;;;;;10314720;28;20055;-64
2021/08/04 21:16:31;;;;;;;8.45;4.63;;;;;;;;;;10316646;28;20051;-64
2021/08/04 21:21:29;;;;;;;7.03;4.68;;;;;;;;;;10316266;28;20052;-63
2021/08/04 21:26:27;;;;;;;9.82;4.63;;;;;;;;;;10316979;28;20080;-63
2021/08/04 21:31:26;;;;;;;6.00;4.65;;;;;;;;;;10316087;28;20048;-63
2021/08/04 21:36:25;;;;;;;8.18;4.63;;;;;;;;;;10316371;28;20076;-64
2021/08/04 21:41:24;;;;;;;6.93;3.80;;;;;;;;;;10316515;28;20055;-64
2021/08/04 21:46:24;;;;;;;3.95;3.25;;;;;;;;;;10316046;28;20540;-65
2021/08/04 21:51:22;;;;;;;9.85;4.45;;;;;;;;;;10315830;28;20048;-63
2021/08/04 21:56:22;;;;;;;8.63;3.85;;;;;;;;;;10316288;28;20461;-63
2021/08/04 22:01:20;;;;;;;12.23;3.80;;;;;;;;;;10324004;28;20532;-62
2021/08/04 22:06:19;;;;;;;7.00;3.88;;;;;;;;;;10323695;28;20083;-63
2021/08/04 22:11:17;;;;;;;4.85;3.35;;;;;;;;;;10323663;28;20037;-63
2021/08/04 22:16:17;;;;;;;6.22;3.55;;;;;;;;;;10323547;28;20072;-62
2021/08/04 22:21:15;;;;;;;4.28;3.13;;;;;;;;;;10322531;28;20047;-62
2021/08/04 22:26:14;;;;;;;3.83;3.30;;;;;;;;;;10323005;28;20059;-63
2021/08/04 22:31:12;;;;;;;6.07;3.30;;;;;;;;;;10323524;28;20041;-64
2021/08/04 22:36:14;;;;;;;5.07;3.28;;;;;;;;;;10322375;28;20060;-64
2021/08/04 22:41:12;;;;;;;4.40;3.38;;;;;;;;;;10322388;28;20055;-63
2021/08/04 22:46:10;;;;;;;5.13;3.70;;;;;;;;;;10322210;28;20045;-65
2021/08/04 22:51:09;;;;;;;4.60;3.42;;;;;;;;;;10322154;28;20048;-62
2021/08/04 22:56:08;;;;;;;5.32;3.20;;;;;;;;;;10320572;28;20045;-63
2021/08/04 23:01:07;;;;;;;5.68;4.10;;;;;;;;;;10321801;28;20079;-63
2021/08/04 23:06:06;;;;;;;10.23;3.67;;;;;;;;;;10321663;28;20060;-63
2021/08/04 23:11:04;;;;;;;6.30;3.63;;;;;;;;;;10321276;28;20079;-63
2021/08/04 23:16:04;;;;;;;7.93;3.55;;;;;;;;;;10322205;28;20033;-63
2021/08/04 23:21:02;;;;;;;5.32;3.63;;;;;;;;;;10320804;28;20094;-63
2021/08/04 23:26:01;;;;;;;7.38;3.30;;;;;;;;;;10321952;28;20063;-63
2021/08/04 23:30:59;;;;;;;7.03;3.40;;;;;;;;;;10321687;28;20520;-63
2021/08/04 23:35:59;;;;;;;10.80;3.42;;;;;;;;;;10321427;28;20044;-64
2021/08/04 23:40:57;;;;;;;6.20;3.20;;;;;;;;;;10320460;28;20089;-63
2021/08/04 23:45:55;;;;;;;5.15;3.20;;;;;;;;;;10321281;28;20462;-63
2021/08/04 23:50:54;;;;;;;8.43;4.07;;;;;;;;;;10321155;28;20036;-63
2021/08/04 23:55:53;;;;;;;6.18;4.00;;;;;;;;;;10320714;28;20048;-62
